sensor_id;sensor_type;location;lat;lon;timestamp;pressure;altitude;pressure_sealevel;temperature;humidity
60479;BME280;46321;48.398;11.754;2023-04-27T00:00:03;96655.19;;;5.98;71.60
60479;BME280;46321;48.398;11.754;2023-04-27T00:02:32;96646.06;;;5.92;71.33
60479;BME280;46321;48.398;11.754;2023-04-27T00:04:57;96643.44;;;5.92;71.94
60479;BME280;46321;48.398;11.754;2023-04-27T00:07:22;96644.84;;;5.87;71.76
60479;BME280;46321;48.398;11.754;2023-04-27T00:09:47;96646.34;;;5.89;72.24
60479;BME280;46321;48.398;11.754;2023-04-27T00:12:13;96649.97;;;5.88;73.53
60479;BME280;46321;48.398;11.754;2023-04-27T00:14:38;96648.28;;;5.87;74.02
60479;BME280;46321;48.398;11.754;2023-04-27T00:17:03;96649.44;;;5.84;74.29
60479;BME280;46321;48.398;11.754;2023-04-27T00:19:28;96647.47;;;5.87;74.15
60479;BME280;46321;48.398;11.754;2023-04-27T00:21:54;96649.53;;;5.83;75.13
60479;BME280;46321;48.398;11.754;2023-04-27T00:24:21;96649.97;;;5.78;75.38
60479;BME280;46321;48.398;11.754;2023-04-27T00:26:47;96652.19;;;5.73;75.93
60479;BME280;46321;48.398;11.754;2023-04-27T00:29:12;96635.59;;;5.72;75.22
60479;BME280;46321;48.398;11.754;2023-04-27T00:31:37;96644.84;;;5.77;74.91
60479;BME280;46321;48.398;11.754;2023-04-27T00:34:02;96641.97;;;5.80;74.50
60479;BME280;46321;48.398;11.754;2023-04-27T00:36:28;96646.78;;;5.84;74.49
60479;BME280;46321;48.398;11.754;2023-04-27T00:38:53;96647.59;;;5.85;74.42
60479;BME280;46321;48.398;11.754;2023-04-27T00:41:18;96647.59;;;5.85;74.10
60479;BME280;46321;48.398;11.754;2023-04-27T00:43:44;96644.03;;;5.86;73.09
60479;BME280;46321;48.398;11.754;2023-04-27T00:46:13;96648.03;;;5.80;72.47
60479;BME280;46321;48.398;11.754;2023-04-27T00:48:39;96642.66;;;5.82;72.35
60479;BME280;46321;48.398;11.754;2023-04-27T00:51:05;96647.59;;;5.85;72.98
60479;BME280;46321;48.398;11.754;2023-04-27T00:53:31;96646.91;;;5.83;73.08
60479;BME280;46321;48.398;11.754;2023-04-27T00:55:57;96641.28;;;5.78;72.29
60479;BME280;46321;48.398;11.754;2023-04-27T00:58:22;96649.69;;;5.81;71.74
60479;BME280;46321;48.398;11.754;2023-04-27T01:00:48;96646.38;;;5.79;71.52
60479;BME280;46321;48.398;11.754;2023-04-27T01:03:13;96637.50;;;5.80;71.21
60479;BME280;46321;48.398;11.754;2023-04-27T01:05:39;96644.97;;;5.85;70.68
60479;BME280;46321;48.398;11.754;2023-04-27T01:08:05;96638.19;;;5.82;71.45
60479;BME280;46321;48.398;11.754;2023-04-27T01:10:31;96638.66;;;5.78;71.76
60479;BME280;46321;48.398;11.754;2023-04-27T01:12:56;96641.41;;;5.76;71.93
60479;BME280;46321;48.398;11.754;2023-04-27T01:15:22;96641.41;;;5.76;71.78
60479;BME280;46321;48.398;11.754;2023-04-27T01:17:47;96645.53;;;5.79;71.39
60479;BME280;46321;48.398;11.754;2023-04-27T01:20:12;96644.72;;;5.78;71.18
60479;BME280;46321;48.398;11.754;2023-04-27T01:22:38;96639.34;;;5.80;71.43
60479;BME280;46321;48.398;11.754;2023-04-27T01:25:04;96635.34;;;5.76;71.62
60479;BME280;46321;48.398;11.754;2023-04-27T01:27:30;96635.34;;;5.76;71.58
60479;BME280;46321;48.398;11.754;2023-04-27T01:29:55;96630.50;;;5.71;71.29
60479;BME280;46321;48.398;11.754;2023-04-27T01:32:21;96634.91;;;5.70;70.64
60479;BME280;46321;48.398;11.754;2023-04-27T01:34:46;96637.53;;;5.70;70.64
60479;BME280;46321;48.398;11.754;2023-04-27T01:37:11;96640.84;;;5.63;71.34
60479;BME280;46321;48.398;11.754;2023-04-27T01:39:37;96637.44;;;5.62;70.78
60479;BME280;46321;48.398;11.754;2023-04-27T01:42:02;96633.56;;;5.66;70.72
60479;BME280;46321;48.398;11.754;2023-04-27T01:44:28;96634.34;;;5.67;70.96
60479;BME280;46321;48.398;11.754;2023-04-27T01:46:53;96638.66;;;5.68;71.42
60479;BME280;46321;48.398;11.754;2023-04-27T01:49:19;96636.28;;;5.65;71.25
60479;BME280;46321;48.398;11.754;2023-04-27T01:51:44;96642.13;;;5.68;71.30
60479;BME280;46321;48.398;11.754;2023-04-27T01:54:09;96648.31;;;5.67;71.74
60479;BME280;46321;48.398;11.754;2023-04-27T01:56:34;96645.00;;;5.65;71.33
60479;BME280;46321;48.398;11.754;2023-04-27T01:59:00;96642.38;;;5.65;71.22
60479;BME280;46321;48.398;11.754;2023-04-27T02:01:25;96651.63;;;5.69;71.46
60479;BME280;46321;48.398;11.754;2023-04-27T02:03:50;96643.75;;;5.69;71.14
60479;BME280;46321;48.398;11.754;2023-04-27T02:06:15;96648.06;;;5.70;71.30
60479;BME280;46321;48.398;11.754;2023-04-27T02:08:41;96653.31;;;5.70;70.99
60479;BME280;46321;48.398;11.754;2023-04-27T02:11:06;96650.69;;;5.70;70.83
60479;BME280;46321;48.398;11.754;2023-04-27T02:13:31;96651.63;;;5.69;70.82
60479;BME280;46321;48.398;11.754;2023-04-27T02:15:56;96647.38;;;5.68;70.76
60479;BME280;46321;48.398;11.754;2023-04-27T02:18:22;96644.84;;;5.67;70.65
60479;BME280;46321;48.398;11.754;2023-04-27T02:20:48;96646.13;;;5.63;71.37
60479;BME280;46321;48.398;11.754;2023-04-27T02:23:13;96653.31;;;5.60;71.07
60479;BME280;46321;48.398;11.754;2023-04-27T02:25:39;96645.00;;;5.65;71.03
60479;BME280;46321;48.398;11.754;2023-04-27T02:28:07;96650.25;;;5.65;71.21
60479;BME280;46321;48.398;11.754;2023-04-27T02:30:32;96653.47;;;5.69;70.76
60479;BME280;46321;48.398;11.754;2023-04-27T02:32:58;96654.69;;;5.65;70.67
60479;BME280;46321;48.398;11.754;2023-04-27T02:35:24;96647.63;;;5.65;71.04
60479;BME280;46321;48.398;11.754;2023-04-27T02:37:50;96643.06;;;5.67;71.32
60479;BME280;46321;48.398;11.754;2023-04-27T02:40:15;96646.69;;;5.66;71.00
60479;BME280;46321;48.398;11.754;2023-04-27T02:42:40;96649.31;;;5.66;70.87
60479;BME280;46321;48.398;11.754;2023-04-27T02:45:06;96648.63;;;5.64;71.32
60479;BME280;46321;48.398;11.754;2023-04-27T02:47:32;96648.63;;;5.64;71.28
60479;BME280;46321;48.398;11.754;2023-04-27T02:49:58;96654.00;;;5.63;71.93
60479;BME280;46321;48.398;11.754;2023-04-27T02:52:23;96651.38;;;5.63;71.77
60479;BME280;46321;48.398;11.754;2023-04-27T02:54:48;96656.34;;;5.56;72.44
60479;BME280;46321;48.398;11.754;2023-04-27T02:57:14;96653.03;;;5.54;72.31
60479;BME280;46321;48.398;11.754;2023-04-27T02:59:39;96651.13;;;5.46;72.22
60479;BME280;46321;48.398;11.754;2023-04-27T03:02:04;96648.91;;;5.41;72.30
60479;BME280;46321;48.398;11.754;2023-04-27T03:04:30;96653.72;;;5.36;71.94
60479;BME280;46321;48.398;11.754;2023-04-27T03:06:55;96656.34;;;5.36;71.97
60479;BME280;46321;48.398;11.754;2023-04-27T03:09:20;96650.28;;;5.25;72.13
60479;BME280;46321;48.398;11.754;2023-04-27T03:11:46;96658.41;;;5.22;72.26
60479;BME280;46321;48.398;11.754;2023-04-27T03:14:11;96661.88;;;5.13;72.67
60479;BME280;46321;48.398;11.754;2023-04-27T03:16:37;96664.91;;;5.08;72.37
60479;BME280;46321;48.398;11.754;2023-04-27T03:19:02;96659.09;;;5.04;71.97
60479;BME280;46321;48.398;11.754;2023-04-27T03:21:27;96664.19;;;4.96;72.69
60479;BME280;46321;48.398;11.754;2023-04-27T03:23:53;96667.38;;;4.90;73.08
60479;BME280;46321;48.398;11.754;2023-04-27T03:26:18;96669.56;;;4.85;74.45
60479;BME280;46321;48.398;11.754;2023-04-27T03:28:44;96675.31;;;4.68;75.38
60479;BME280;46321;48.398;11.754;2023-04-27T03:31:11;96678.06;;;4.67;75.97
60479;BME280;46321;48.398;11.754;2023-04-27T03:33:37;96682.47;;;4.66;75.63
60479;BME280;46321;48.398;11.754;2023-04-27T03:36:04;96680.53;;;4.58;76.84
60479;BME280;46321;48.398;11.754;2023-04-27T03:38:30;96680.38;;;4.50;76.59
60479;BME280;46321;48.398;11.754;2023-04-27T03:40:55;96681.31;;;4.49;76.53
60479;BME280;46321;48.398;11.754;2023-04-27T03:43:21;96677.31;;;4.45;76.48
60479;BME280;46321;48.398;11.754;2023-04-27T03:45:47;96683.25;;;4.47;76.58
60479;BME280;46321;48.398;11.754;2023-04-27T03:48:13;96686.94;;;4.44;76.28
60479;BME280;46321;48.398;11.754;2023-04-27T03:50:39;96682.94;;;4.40;76.25
60479;BME280;46321;48.398;11.754;2023-04-27T03:53:04;96683.09;;;4.39;75.94
60479;BME280;46321;48.398;11.754;2023-04-27T03:55:29;96690.25;;;4.37;76.40
60479;BME280;46321;48.398;11.754;2023-04-27T03:57:55;96695.28;;;4.28;76.57
60479;BME280;46321;48.398;11.754;2023-04-27T04:00:21;96698.75;;;4.29;76.40
60479;BME280;46321;48.398;11.754;2023-04-27T04:02:46;96693.66;;;4.27;76.70
60479;BME280;46321;48.398;11.754;2023-04-27T04:05:11;96696.91;;;4.19;76.06
60479;BME280;46321;48.398;11.754;2023-04-27T04:07:38;96697.97;;;4.17;76.37
60479;BME280;46321;48.398;11.754;2023-04-27T04:10:06;96707.75;;;4.15;76.47
60479;BME280;46321;48.398;11.754;2023-04-27T04:12:31;96703.22;;;4.17;76.03
60479;BME280;46321;48.398;11.754;2023-04-27T04:14:57;96700.19;;;4.11;75.57
60479;BME280;46321;48.398;11.754;2023-04-27T04:17:22;96704.44;;;4.12;75.26
60479;BME280;46321;48.398;11.754;2023-04-27T04:19:47;96712.44;;;4.11;75.31
60479;BME280;46321;48.398;11.754;2023-04-27T04:22:12;96706.66;;;4.07;74.94
60479;BME280;46321;48.398;11.754;2023-04-27T04:24:38;96710.47;;;4.03;74.95
60479;BME280;46321;48.398;11.754;2023-04-27T04:27:04;96696.66;;;4.01;74.77
60479;BME280;46321;48.398;11.754;2023-04-27T04:29:30;96715.91;;;4.11;75.64
60479;BME280;46321;48.398;11.754;2023-04-27T04:31:55;96721.69;;;4.15;75.85
60479;BME280;46321;48.398;11.754;2023-04-27T04:34:20;96728.81;;;4.24;76.41
60479;BME280;46321;48.398;11.754;2023-04-27T04:36:46;96729.50;;;4.27;76.60
60479;BME280;46321;48.398;11.754;2023-04-27T04:39:16;96726.09;;;4.36;77.51
60479;BME280;46321;48.398;11.754;2023-04-27T04:41:41;96722.81;;;4.44;78.00
60479;BME280;46321;48.398;11.754;2023-04-27T04:44:06;96717.47;;;4.45;77.88
60479;BME280;46321;48.398;11.754;2023-04-27T04:46:32;96722.72;;;4.55;78.17
60479;BME280;46321;48.398;11.754;2023-04-27T04:48:57;96725.81;;;4.61;78.75
60479;BME280;46321;48.398;11.754;2023-04-27T04:51:22;96722.00;;;4.75;78.59
60479;BME280;46321;48.398;11.754;2023-04-27T04:53:47;96728.09;;;4.85;78.62
60479;BME280;46321;48.398;11.754;2023-04-27T04:56:13;96730.03;;;4.93;78.38
60479;BME280;46321;48.398;11.754;2023-04-27T04:58:38;96730.63;;;4.97;78.95
60479;BME280;46321;48.398;11.754;2023-04-27T05:01:04;96715.44;;;4.90;79.73
60479;BME280;46321;48.398;11.754;2023-04-27T05:03:30;96719.72;;;5.01;79.25
60479;BME280;46321;48.398;11.754;2023-04-27T05:05:56;96734.09;;;5.07;77.33
60479;BME280;46321;48.398;11.754;2023-04-27T05:08:22;96738.25;;;5.10;75.37
60479;BME280;46321;48.398;11.754;2023-04-27T05:10:50;96736.75;;;5.17;73.40
60479;BME280;46321;48.398;11.754;2023-04-27T05:13:16;96733.59;;;5.23;72.07
60479;BME280;46321;48.398;11.754;2023-04-27T05:15:41;96736.75;;;5.27;71.10
60479;BME280;46321;48.398;11.754;2023-04-27T05:18:07;96744.81;;;5.35;71.36
60479;BME280;46321;48.398;11.754;2023-04-27T05:20:36;96752.13;;;5.42;71.04
60479;BME280;46321;48.398;11.754;2023-04-27T05:23:02;96748.66;;;5.51;71.09
60479;BME280;46321;48.398;11.754;2023-04-27T05:25:31;96742.47;;;5.52;72.51
60479;BME280;46321;48.398;11.754;2023-04-27T05:27:57;96751.75;;;5.66;72.83
60479;BME280;46321;48.398;11.754;2023-04-27T05:30:23;96743.16;;;5.64;72.98
60479;BME280;46321;48.398;11.754;2023-04-27T05:32:48;96744.69;;;5.77;72.96
60479;BME280;46321;48.398;11.754;2023-04-27T05:35:13;96734.16;;;5.77;72.13
60479;BME280;46321;48.398;11.754;2023-04-27T05:37:38;96746.06;;;5.81;71.76
60479;BME280;46321;48.398;11.754;2023-04-27T05:40:05;96747.84;;;5.90;71.48
60479;BME280;46321;48.398;11.754;2023-04-27T05:42:33;96747.88;;;6.00;70.83
60479;BME280;46321;48.398;11.754;2023-04-27T05:44:58;96751.47;;;6.09;70.83
60479;BME280;46321;48.398;11.754;2023-04-27T05:47:23;96741.78;;;6.10;70.26
60479;BME280;46321;48.398;11.754;2023-04-27T05:49:50;96747.72;;;6.12;69.72
60479;BME280;46321;48.398;11.754;2023-04-27T05:52:15;96754.75;;;6.31;69.42
60479;BME280;46321;48.398;11.754;2023-04-27T05:54:45;96764.97;;;6.34;67.66
60479;BME280;46321;48.398;11.754;2023-04-27T05:57:10;96763.75;;;6.38;67.26
60479;BME280;46321;48.398;11.754;2023-04-27T05:59:36;96768.00;;;6.49;66.74
60479;BME280;46321;48.398;11.754;2023-04-27T06:02:01;96775.75;;;6.51;65.86
60479;BME280;46321;48.398;11.754;2023-04-27T06:04:26;96768.28;;;6.56;65.71
60479;BME280;46321;48.398;11.754;2023-04-27T06:06:51;96772.53;;;6.57;64.86
60479;BME280;46321;48.398;11.754;2023-04-27T06:09:17;96772.66;;;6.66;65.59
60479;BME280;46321;48.398;11.754;2023-04-27T06:11:42;96765.84;;;6.73;65.08
60479;BME280;46321;48.398;11.754;2023-04-27T06:14:07;96772.47;;;6.77;64.54
60479;BME280;46321;48.398;11.754;2023-04-27T06:16:33;96761.84;;;6.79;64.70
60479;BME280;46321;48.398;11.754;2023-04-27T06:18:58;96757.88;;;6.93;64.87
60479;BME280;46321;48.398;11.754;2023-04-27T06:21:24;96762.66;;;7.07;65.06
60479;BME280;46321;48.398;11.754;2023-04-27T06:23:49;96764.44;;;7.17;64.67
60479;BME280;46321;48.398;11.754;2023-04-27T06:26:14;96766.75;;;7.20;64.48
60479;BME280;46321;48.398;11.754;2023-04-27T06:28:40;96759.63;;;7.30;63.99
60479;BME280;46321;48.398;11.754;2023-04-27T06:31:05;96759.81;;;7.47;63.82
60479;BME280;46321;48.398;11.754;2023-04-27T06:33:30;96769.75;;;7.53;64.20
60479;BME280;46321;48.398;11.754;2023-04-27T06:35:56;96777.16;;;7.68;64.01
60479;BME280;46321;48.398;11.754;2023-04-27T06:38:21;96772.78;;;7.77;63.54
60479;BME280;46321;48.398;11.754;2023-04-27T06:40:49;96787.09;;;7.93;63.75
60479;BME280;46321;48.398;11.754;2023-04-27T06:43:15;96784.69;;;7.99;63.93
60479;BME280;46321;48.398;11.754;2023-04-27T06:45:41;96762.81;;;7.89;63.88
60479;BME280;46321;48.398;11.754;2023-04-27T06:48:06;96772.91;;;7.94;64.45
60479;BME280;46321;48.398;11.754;2023-04-27T06:50:32;96776.31;;;8.04;64.25
60479;BME280;46321;48.398;11.754;2023-04-27T06:52:57;96778.13;;;8.04;63.72
60479;BME280;46321;48.398;11.754;2023-04-27T06:55:22;96785.41;;;8.10;62.61
60479;BME280;46321;48.398;11.754;2023-04-27T06:57:48;96778.09;;;8.22;61.71
60479;BME280;46321;48.398;11.754;2023-04-27T07:00:13;96777.94;;;8.23;61.34
60479;BME280;46321;48.398;11.754;2023-04-27T07:02:38;96780.34;;;8.35;60.95
60479;BME280;46321;48.398;11.754;2023-04-27T07:05:04;96780.69;;;8.40;60.09
60479;BME280;46321;48.398;11.754;2023-04-27T07:07:29;96782.78;;;8.55;59.32
60479;BME280;46321;48.398;11.754;2023-04-27T07:09:54;96792.44;;;8.64;58.91
60479;BME280;46321;48.398;11.754;2023-04-27T07:12:20;96780.03;;;8.65;57.21
60479;BME280;46321;48.398;11.754;2023-04-27T07:14:45;96782.44;;;8.76;57.23
60479;BME280;46321;48.398;11.754;2023-04-27T07:17:11;96787.63;;;8.95;57.91
60479;BME280;46321;48.398;11.754;2023-04-27T07:19:36;96777.88;;;8.87;56.46
60479;BME280;46321;48.398;11.754;2023-04-27T07:22:01;96781.13;;;9.07;56.60
60479;BME280;46321;48.398;11.754;2023-04-27T07:24:28;96783.25;;;9.12;56.88
60479;BME280;46321;48.398;11.754;2023-04-27T07:26:53;96775.22;;;9.30;57.15
60479;BME280;46321;48.398;11.754;2023-04-27T07:29:18;96768.59;;;9.18;56.58
60479;BME280;46321;48.398;11.754;2023-04-27T07:31:43;96769.34;;;9.45;55.28
60479;BME280;46321;48.398;11.754;2023-04-27T07:34:09;96772.84;;;9.62;55.46
60479;BME280;46321;48.398;11.754;2023-04-27T07:36:35;96777.13;;;9.55;56.74
60479;BME280;46321;48.398;11.754;2023-04-27T07:39:01;96772.38;;;9.67;56.42
60479;BME280;46321;48.398;11.754;2023-04-27T07:41:26;96783.78;;;9.76;54.94
60479;BME280;46321;48.398;11.754;2023-04-27T07:43:51;96785.13;;;9.96;54.67
60479;BME280;46321;48.398;11.754;2023-04-27T07:46:17;96768.91;;;10.00;55.06
60479;BME280;46321;48.398;11.754;2023-04-27T07:48:43;96786.28;;;9.94;55.38
60479;BME280;46321;48.398;11.754;2023-04-27T07:51:09;96779.69;;;9.98;55.55
60479;BME280;46321;48.398;11.754;2023-04-27T07:53:34;96792.38;;;9.69;54.66
60479;BME280;46321;48.398;11.754;2023-04-27T07:56:00;96794.22;;;9.85;55.37
60479;BME280;46321;48.398;11.754;2023-04-27T07:58:26;96782.00;;;10.01;54.93
60479;BME280;46321;48.398;11.754;2023-04-27T08:00:51;96771.75;;;10.31;55.05
60479;BME280;46321;48.398;11.754;2023-04-27T08:03:16;96779.66;;;10.40;54.41
60479;BME280;46321;48.398;11.754;2023-04-27T08:05:41;96784.31;;;10.55;53.78
60479;BME280;46321;48.398;11.754;2023-04-27T08:08:07;96769.06;;;10.65;53.95
60479;BME280;46321;48.398;11.754;2023-04-27T08:10:32;96787.94;;;10.37;54.03
60479;BME280;46321;48.398;11.754;2023-04-27T08:12:57;96784.75;;;10.83;54.00
60479;BME280;46321;48.398;11.754;2023-04-27T08:15:22;96791.59;;;10.61;54.07
60479;BME280;46321;48.398;11.754;2023-04-27T08:17:48;96797.88;;;10.68;53.55
60479;BME280;46321;48.398;11.754;2023-04-27T08:20:13;96800.09;;;10.96;53.27
60479;BME280;46321;48.398;11.754;2023-04-27T08:22:40;96795.91;;;11.19;51.05
60479;BME280;46321;48.398;11.754;2023-04-27T08:25:06;96788.94;;;11.58;51.86
60479;BME280;46321;48.398;11.754;2023-04-27T08:27:32;96784.94;;;11.86;51.69
60479;BME280;46321;48.398;11.754;2023-04-27T08:29:58;96801.97;;;11.68;52.39
60479;BME280;46321;48.398;11.754;2023-04-27T08:32:25;96792.16;;;12.00;50.93
60479;BME280;46321;48.398;11.754;2023-04-27T08:34:50;96783.84;;;12.27;51.33
60479;BME280;46321;48.398;11.754;2023-04-27T08:37:15;96787.38;;;11.96;50.31
60479;BME280;46321;48.398;11.754;2023-04-27T08:39:42;96785.91;;;12.55;49.67
60479;BME280;46321;48.398;11.754;2023-04-27T08:42:12;96785.38;;;12.60;49.56
60479;BME280;46321;48.398;11.754;2023-04-27T08:44:43;96794.91;;;12.54;45.29
60479;BME280;46321;48.398;11.754;2023-04-27T08:47:09;96786.44;;;12.35;45.13
60479;BME280;46321;48.398;11.754;2023-04-27T08:52:57;96783.75;;;12.89;46.49
60479;BME280;46321;48.398;11.754;2023-04-27T08:55:22;96785.47;;;12.67;43.74
60479;BME280;46321;48.398;11.754;2023-04-27T08:57:57;96792.00;;;13.10;42.52
60479;BME280;46321;48.398;11.754;2023-04-27T09:00:25;96787.00;;;12.46;41.20
60479;BME280;46321;48.398;11.754;2023-04-27T09:02:50;96791.44;;;12.84;40.80
60479;BME280;46321;48.398;11.754;2023-04-27T09:05:17;96775.22;;;13.24;39.41
60479;BME280;46321;48.398;11.754;2023-04-27T09:07:58;96781.53;;;13.76;41.75
60479;BME280;46321;48.398;11.754;2023-04-27T09:10:23;96776.94;;;13.84;41.63
60479;BME280;46321;48.398;11.754;2023-04-27T09:12:56;96774.91;;;14.30;42.46
60479;BME280;46321;48.398;11.754;2023-04-27T09:15:23;96763.63;;;14.57;41.08
60479;BME280;46321;48.398;11.754;2023-04-27T09:17:53;96783.31;;;14.34;40.11
60479;BME280;46321;48.398;11.754;2023-04-27T09:20:19;96767.13;;;14.58;41.99
60479;BME280;46321;48.398;11.754;2023-04-27T09:22:45;96783.03;;;15.57;39.81
60479;BME280;46321;48.398;11.754;2023-04-27T09:25:24;96772.13;;;16.15;38.30
60479;BME280;46321;48.398;11.754;2023-04-27T09:27:53;96769.56;;;17.02;36.07
60479;BME280;46321;48.398;11.754;2023-04-27T09:30:19;96768.72;;;17.15;35.88
60479;BME280;46321;48.398;11.754;2023-04-27T09:32:52;96753.16;;;17.51;35.09
60479;BME280;46321;48.398;11.754;2023-04-27T09:35:23;96762.44;;;17.88;32.91
60479;BME280;46321;48.398;11.754;2023-04-27T09:45:00;96734.38;;;20.04;30.13
60479;BME280;46321;48.398;11.754;2023-04-27T09:48:22;96742.88;;;20.44;28.68
60479;BME280;46321;48.398;11.754;2023-04-27T10:11:32;96699.09;;;24.54;25.16
60479;BME280;46321;48.398;11.754;2023-04-27T10:24:33;96708.44;;;26.95;21.28
60479;BME280;46321;48.398;11.754;2023-04-27T10:27:01;96711.78;;;26.66;21.14
60479;BME280;46321;48.398;11.754;2023-04-27T10:29:43;96712.34;;;26.58;21.09
60479;BME280;46321;48.398;11.754;2023-04-27T10:32:33;96714.28;;;26.05;22.46
60479;BME280;46321;48.398;11.754;2023-04-27T10:35:05;96709.56;;;25.64;22.72
60479;BME280;46321;48.398;11.754;2023-04-27T10:37:40;96707.47;;;26.55;22.39
60479;BME280;46321;48.398;11.754;2023-04-27T10:40:09;96711.78;;;27.94;21.11
60479;BME280;46321;48.398;11.754;2023-04-27T10:42:35;96705.44;;;28.68;19.98
60479;BME280;46321;48.398;11.754;2023-04-27T10:45:00;96710.72;;;25.89;21.81
60479;BME280;46321;48.398;11.754;2023-04-27T10:47:38;96710.00;;;23.66;24.21
60479;BME280;46321;48.398;11.754;2023-04-27T10:50:05;96712.19;;;23.69;24.80
60479;BME280;46321;48.398;11.754;2023-04-27T10:52:30;96708.94;;;24.00;23.28
60479;BME280;46321;48.398;11.754;2023-04-27T10:54:56;96713.06;;;24.41;24.07
60479;BME280;46321;48.398;11.754;2023-04-27T10:57:21;96701.22;;;26.38;22.17
60479;BME280;46321;48.398;11.754;2023-04-27T10:59:52;96699.91;;;25.94;22.65
60479;BME280;46321;48.398;11.754;2023-04-27T11:02:25;96691.69;;;25.57;24.27
60479;BME280;46321;48.398;11.754;2023-04-27T11:04:51;96696.13;;;23.85;24.37
60479;BME280;46321;48.398;11.754;2023-04-27T11:07:25;96697.69;;;24.46;25.24
60479;BME280;46321;48.398;11.754;2023-04-27T11:09:51;96698.91;;;22.72;24.82
60479;BME280;46321;48.398;11.754;2023-04-27T11:12:17;96711.00;;;21.83;26.86
60479;BME280;46321;48.398;11.754;2023-04-27T11:14:42;96698.19;;;20.91;28.77
60479;BME280;46321;48.398;11.754;2023-04-27T11:17:08;96712.47;;;19.64;30.51
60479;BME280;46321;48.398;11.754;2023-04-27T11:19:46;96712.13;;;20.16;31.24
60479;BME280;46321;48.398;11.754;2023-04-27T11:22:13;96712.75;;;19.87;30.83
60479;BME280;46321;48.398;11.754;2023-04-27T11:24:51;96700.31;;;18.74;30.86
60479;BME280;46321;48.398;11.754;2023-04-27T11:27:17;96707.63;;;18.86;31.48
60479;BME280;46321;48.398;11.754;2023-04-27T11:29:43;96701.72;;;18.96;29.97
60479;BME280;46321;48.398;11.754;2023-04-27T11:32:20;96714.69;;;18.80;30.46
60479;BME280;46321;48.398;11.754;2023-04-27T11:34:52;96713.28;;;19.15;31.46
60479;BME280;46321;48.398;11.754;2023-04-27T11:37:25;96708.06;;;19.02;31.50
60479;BME280;46321;48.398;11.754;2023-04-27T11:39:51;96713.34;;;19.08;30.36
60479;BME280;46321;48.398;11.754;2023-04-27T11:42:25;96710.22;;;18.93;31.38
60479;BME280;46321;48.398;11.754;2023-04-27T11:44:59;96710.28;;;19.05;31.37
60479;BME280;46321;48.398;11.754;2023-04-27T11:47:30;96705.38;;;19.20;30.10
60479;BME280;46321;48.398;11.754;2023-04-27T11:49:56;96701.59;;;19.28;30.64
60479;BME280;46321;48.398;11.754;2023-04-27T11:52:31;96699.03;;;18.96;31.22
60479;BME280;46321;48.398;11.754;2023-04-27T11:54:57;96706.63;;;19.18;32.03
60479;BME280;46321;48.398;11.754;2023-04-27T11:57:24;96703.66;;;19.07;31.42
60479;BME280;46321;48.398;11.754;2023-04-27T11:59:51;96714.16;;;19.09;32.23
60479;BME280;46321;48.398;11.754;2023-04-27T12:02:16;96714.16;;;19.09;31.78
60479;BME280;46321;48.398;11.754;2023-04-27T12:04:42;96708.69;;;18.40;31.96
60479;BME280;46321;48.398;11.754;2023-04-27T12:07:07;96706.34;;;18.25;31.92
60479;BME280;46321;48.398;11.754;2023-04-27T12:09:32;96717.03;;;18.51;32.41
60479;BME280;46321;48.398;11.754;2023-04-27T12:11:58;96705.63;;;18.37;32.96
60479;BME280;46321;48.398;11.754;2023-04-27T12:14:24;96702.25;;;18.67;32.83
60479;BME280;46321;48.398;11.754;2023-04-27T12:16:49;96704.03;;;18.73;31.47
60479;BME280;46321;48.398;11.754;2023-04-27T12:19:15;96716.31;;;19.00;33.97
60479;BME280;46321;48.398;11.754;2023-04-27T12:21:40;96703.88;;;18.87;32.51
60479;BME280;46321;48.398;11.754;2023-04-27T12:24:06;96710.66;;;18.90;31.85
60479;BME280;46321;48.398;11.754;2023-04-27T12:26:32;96711.09;;;19.05;32.37
60479;BME280;46321;48.398;11.754;2023-04-27T12:28:57;96702.09;;;19.18;31.75
60479;BME280;46321;48.398;11.754;2023-04-27T12:31:22;96698.81;;;18.79;31.45
60479;BME280;46321;48.398;11.754;2023-04-27T12:33:49;96697.84;;;18.92;33.23
60479;BME280;46321;48.398;11.754;2023-04-27T12:36:16;96698.75;;;18.85;32.58
60479;BME280;46321;48.398;11.754;2023-04-27T12:38:41;96709.00;;;19.07;33.51
60479;BME280;46321;48.398;11.754;2023-04-27T12:41:07;96706.94;;;19.09;32.24
60479;BME280;46321;48.398;11.754;2023-04-27T12:43:32;96700.59;;;19.04;31.95
60479;BME280;46321;48.398;11.754;2023-04-27T12:46:00;96702.38;;;19.10;33.57
60479;BME280;46321;48.398;11.754;2023-04-27T12:48:25;96702.97;;;19.12;32.51
60479;BME280;46321;48.398;11.754;2023-04-27T12:50:50;96700.13;;;19.07;32.57
60479;BME280;46321;48.398;11.754;2023-04-27T12:53:16;96693.47;;;18.79;33.33
60479;BME280;46321;48.398;11.754;2023-04-27T12:55:41;96695.59;;;18.88;33.36
60479;BME280;46321;48.398;11.754;2023-04-27T12:58:07;96693.59;;;19.03;32.18
60479;BME280;46321;48.398;11.754;2023-04-27T13:00:33;96689.28;;;18.83;32.49
60479;BME280;46321;48.398;11.754;2023-04-27T13:02:58;96689.13;;;18.59;31.33
60479;BME280;46321;48.398;11.754;2023-04-27T13:05:23;96687.72;;;18.56;32.28
60479;BME280;46321;48.398;11.754;2023-04-27T13:07:49;96686.06;;;18.55;33.30
60479;BME280;46321;48.398;11.754;2023-04-27T13:10:14;96687.06;;;18.61;34.05
60479;BME280;46321;48.398;11.754;2023-04-27T13:12:40;96683.41;;;18.74;33.46
60479;BME280;46321;48.398;11.754;2023-04-27T13:15:05;96683.72;;;18.65;32.42
60479;BME280;46321;48.398;11.754;2023-04-27T13:17:31;96676.13;;;18.81;32.76
60479;BME280;46321;48.398;11.754;2023-04-27T13:19:57;96673.47;;;18.93;32.36
60479;BME280;46321;48.398;11.754;2023-04-27T13:22:22;96679.31;;;18.90;33.50
60479;BME280;46321;48.398;11.754;2023-04-27T13:24:47;96676.84;;;18.88;33.11
60479;BME280;46321;48.398;11.754;2023-04-27T13:27:12;96677.50;;;19.03;33.33
60479;BME280;46321;48.398;11.754;2023-04-27T13:29:38;96679.75;;;19.06;32.56
60479;BME280;46321;48.398;11.754;2023-04-27T13:32:03;96674.59;;;19.04;33.71